Terminal Aerodrome Forecast
Issued by NWS Knoxville/Tri Cities, TN

Home | Current Version | Previous Version | Text Only | Print | Product List | Glossary On
Versions: 1 2 3 4 5 6 7 8 9 10 11 12 13 14 15 16 17 18 19 20
000
FTUS44 KMRX 300123 AAA
TAFCHA
TAF AMD
KCHA 300123Z 3001/3024 VRB04KT P6SM VCTS SCT045CB BKN080
     FM300200 16004KT P6SM FEW050 SCT100 BKN250
     FM301400 17010KT P6SM BKN035
     FM301900 16015KT P6SM SCT050 BKN080=

USA.gov is the U.S. government's official web portal to all federal, state and local government web resources and services.